sensor_id;sensor_type;location;lat;lon;timestamp;temperature;humidity
4308;DHT22;2167;53.448;9.984;2023-11-21T00:02:21;10.40;13.80
4308;DHT22;2167;53.448;9.984;2023-11-21T00:04:48;10.40;13.70
4308;DHT22;2167;53.448;9.984;2023-11-21T00:07:14;10.30;13.70
4308;DHT22;2167;53.448;9.984;2023-11-21T00:09:40;10.40;13.70
4308;DHT22;2167;53.448;9.984;2023-11-21T00:12:07;10.40;13.80
4308;DHT22;2167;53.448;9.984;2023-11-21T00:14:36;10.40;13.70
4308;DHT22;2167;53.448;9.984;2023-11-21T00:17:02;10.40;13.50
4308;DHT22;2167;53.448;9.984;2023-11-21T00:19:28;10.30;13.60
4308;DHT22;2167;53.448;9.984;2023-11-21T00:21:54;10.30;13.60
4308;DHT22;2167;53.448;9.984;2023-11-21T00:24:19;10.30;13.50
4308;DHT22;2167;53.448;9.984;2023-11-21T00:26:45;10.20;13.30
4308;DHT22;2167;53.448;9.984;2023-11-21T00:29:11;10.20;13.40
4308;DHT22;2167;53.448;9.984;2023-11-21T00:31:37;10.20;13.30
4308;DHT22;2167;53.448;9.984;2023-11-21T00:34:04;10.10;13.20
4308;DHT22;2167;53.448;9.984;2023-11-21T00:36:33;10.10;13.20
4308;DHT22;2167;53.448;9.984;2023-11-21T00:38:59;10.10;13.30
4308;DHT22;2167;53.448;9.984;2023-11-21T00:41:25;10.10;13.20
4308;DHT22;2167;53.448;9.984;2023-11-21T00:43:53;10.00;13.20
4308;DHT22;2167;53.448;9.984;2023-11-21T00:46:19;10.00;13.00
4308;DHT22;2167;53.448;9.984;2023-11-21T00:48:45;10.00;12.80
4308;DHT22;2167;53.448;9.984;2023-11-21T00:51:10;9.90;12.90
4308;DHT22;2167;53.448;9.984;2023-11-21T00:53:36;10.00;13.10
4308;DHT22;2167;53.448;9.984;2023-11-21T00:56:01;9.90;12.80
4308;DHT22;2167;53.448;9.984;2023-11-21T00:58:28;9.80;12.30
4308;DHT22;2167;53.448;9.984;2023-11-21T01:00:53;9.70;12.20
4308;DHT22;2167;53.448;9.984;2023-11-21T01:03:19;9.70;12.30
4308;DHT22;2167;53.448;9.984;2023-11-21T01:05:45;9.60;12.10
4308;DHT22;2167;53.448;9.984;2023-11-21T01:08:11;9.70;12.40
4308;DHT22;2167;53.448;9.984;2023-11-21T01:10:37;9.60;12.20
4308;DHT22;2167;53.448;9.984;2023-11-21T01:13:03;9.50;12.20
4308;DHT22;2167;53.448;9.984;2023-11-21T01:15:35;9.50;12.20
4308;DHT22;2167;53.448;9.984;2023-11-21T01:18:01;9.50;12.10
4308;DHT22;2167;53.448;9.984;2023-11-21T01:20:26;9.40;11.80
4308;DHT22;2167;53.448;9.984;2023-11-21T01:22:52;9.40;11.70
4308;DHT22;2167;53.448;9.984;2023-11-21T01:25:19;9.30;11.20
4308;DHT22;2167;53.448;9.984;2023-11-21T01:27:46;9.30;11.30
4308;DHT22;2167;53.448;9.984;2023-11-21T01:30:12;9.30;11.30
4308;DHT22;2167;53.448;9.984;2023-11-21T01:32:38;9.20;11.40
4308;DHT22;2167;53.448;9.984;2023-11-21T01:35:05;9.20;11.50
4308;DHT22;2167;53.448;9.984;2023-11-21T01:37:32;9.20;11.50
4308;DHT22;2167;53.448;9.984;2023-11-21T01:39:59;9.20;11.50
4308;DHT22;2167;53.448;9.984;2023-11-21T01:42:26;9.20;11.50
4308;DHT22;2167;53.448;9.984;2023-11-21T01:44:52;9.20;11.70
4308;DHT22;2167;53.448;9.984;2023-11-21T01:47:19;9.10;11.50
4308;DHT22;2167;53.448;9.984;2023-11-21T01:49:46;9.20;12.10
4308;DHT22;2167;53.448;9.984;2023-11-21T01:52:12;9.10;11.60
4308;DHT22;2167;53.448;9.984;2023-11-21T01:54:39;9.20;11.70
4308;DHT22;2167;53.448;9.984;2023-11-21T01:57:07;9.10;11.50
4308;DHT22;2167;53.448;9.984;2023-11-21T01:59:37;9.20;11.50
4308;DHT22;2167;53.448;9.984;2023-11-21T02:02:04;9.10;11.20
4308;DHT22;2167;53.448;9.984;2023-11-21T02:04:31;9.10;10.70
4308;DHT22;2167;53.448;9.984;2023-11-21T02:06:57;9.10;10.60
4308;DHT22;2167;53.448;9.984;2023-11-21T02:09:28;9.00;9.90
4308;DHT22;2167;53.448;9.984;2023-11-21T02:11:58;9.00;10.00
4308;DHT22;2167;53.448;9.984;2023-11-21T02:14:27;9.00;9.90
4308;DHT22;2167;53.448;9.984;2023-11-21T02:16:56;9.00;10.30
4308;DHT22;2167;53.448;9.984;2023-11-21T02:19:23;9.00;10.40
4308;DHT22;2167;53.448;9.984;2023-11-21T02:21:53;9.00;9.90
4308;DHT22;2167;53.448;9.984;2023-11-21T02:24:21;8.90;9.70
4308;DHT22;2167;53.448;9.984;2023-11-21T02:26:47;8.90;9.50
4308;DHT22;2167;53.448;9.984;2023-11-21T02:29:14;8.90;9.30
4308;DHT22;2167;53.448;9.984;2023-11-21T02:31:43;8.90;9.30
4308;DHT22;2167;53.448;9.984;2023-11-21T02:34:16;8.90;8.70
4308;DHT22;2167;53.448;9.984;2023-11-21T02:36:42;8.90;8.50
4308;DHT22;2167;53.448;9.984;2023-11-21T02:39:09;8.80;8.20
4308;DHT22;2167;53.448;9.984;2023-11-21T02:41:36;8.80;8.20
4308;DHT22;2167;53.448;9.984;2023-11-21T02:44:01;8.80;8.30
4308;DHT22;2167;53.448;9.984;2023-11-21T02:46:27;8.80;7.80
4308;DHT22;2167;53.448;9.984;2023-11-21T02:48:53;8.80;7.40
4308;DHT22;2167;53.448;9.984;2023-11-21T02:51:20;8.80;7.50
4308;DHT22;2167;53.448;9.984;2023-11-21T02:53:45;8.80;7.20
4308;DHT22;2167;53.448;9.984;2023-11-21T02:56:12;8.80;6.90
4308;DHT22;2167;53.448;9.984;2023-11-21T02:58:41;8.80;6.90
4308;DHT22;2167;53.448;9.984;2023-11-21T03:01:06;8.80;6.40
4308;DHT22;2167;53.448;9.984;2023-11-21T03:03:33;8.70;6.20
4308;DHT22;2167;53.448;9.984;2023-11-21T03:05:59;8.70;5.80
4308;DHT22;2167;53.448;9.984;2023-11-21T03:08:25;8.70;6.20
4308;DHT22;2167;53.448;9.984;2023-11-21T03:10:50;8.70;5.80
4308;DHT22;2167;53.448;9.984;2023-11-21T03:13:16;8.70;6.60
4308;DHT22;2167;53.448;9.984;2023-11-21T03:15:42;8.70;5.90
4308;DHT22;2167;53.448;9.984;2023-11-21T03:18:08;8.70;6.00
4308;DHT22;2167;53.448;9.984;2023-11-21T03:20:34;8.70;6.00
4308;DHT22;2167;53.448;9.984;2023-11-21T03:23:00;8.70;5.90
4308;DHT22;2167;53.448;9.984;2023-11-21T03:25:26;8.70;5.70
4308;DHT22;2167;53.448;9.984;2023-11-21T03:27:52;8.70;6.40
4308;DHT22;2167;53.448;9.984;2023-11-21T03:30:18;8.70;5.30
4308;DHT22;2167;53.448;9.984;2023-11-21T03:32:44;8.60;5.00
4308;DHT22;2167;53.448;9.984;2023-11-21T03:35:10;8.50;5.20
4308;DHT22;2167;53.448;9.984;2023-11-21T03:37:35;8.50;5.60
4308;DHT22;2167;53.448;9.984;2023-11-21T03:40:03;8.50;5.60
4308;DHT22;2167;53.448;9.984;2023-11-21T03:42:29;8.50;5.50
4308;DHT22;2167;53.448;9.984;2023-11-21T03:44:55;8.50;5.70
4308;DHT22;2167;53.448;9.984;2023-11-21T03:47:21;8.40;5.20
4308;DHT22;2167;53.448;9.984;2023-11-21T03:49:47;8.40;5.10
4308;DHT22;2167;53.448;9.984;2023-11-21T03:52:12;8.40;5.30
4308;DHT22;2167;53.448;9.984;2023-11-21T03:54:38;8.50;5.50
4308;DHT22;2167;53.448;9.984;2023-11-21T03:57:04;8.50;5.50
4308;DHT22;2167;53.448;9.984;2023-11-21T03:59:29;8.50;5.40
4308;DHT22;2167;53.448;9.984;2023-11-21T04:01:56;8.50;5.20
4308;DHT22;2167;53.448;9.984;2023-11-21T04:04:24;8.40;5.20
4308;DHT22;2167;53.448;9.984;2023-11-21T04:06:50;8.40;5.10
4308;DHT22;2167;53.448;9.984;2023-11-21T04:09:17;8.40;5.10
4308;DHT22;2167;53.448;9.984;2023-11-21T04:11:43;8.40;5.00
4308;DHT22;2167;53.448;9.984;2023-11-21T04:14:11;8.30;5.00
4308;DHT22;2167;53.448;9.984;2023-11-21T04:16:37;8.30;4.90
4308;DHT22;2167;53.448;9.984;2023-11-21T04:19:02;8.30;4.80
4308;DHT22;2167;53.448;9.984;2023-11-21T04:21:28;8.30;5.00
4308;DHT22;2167;53.448;9.984;2023-11-21T04:23:53;8.40;5.30
4308;DHT22;2167;53.448;9.984;2023-11-21T04:26:19;8.40;5.30
4308;DHT22;2167;53.448;9.984;2023-11-21T04:28:44;8.40;5.10
4308;DHT22;2167;53.448;9.984;2023-11-21T04:31:10;8.40;5.50
4308;DHT22;2167;53.448;9.984;2023-11-21T04:33:36;8.40;4.80
4308;DHT22;2167;53.448;9.984;2023-11-21T04:36:01;8.30;4.90
4308;DHT22;2167;53.448;9.984;2023-11-21T04:38:27;8.30;5.10
4308;DHT22;2167;53.448;9.984;2023-11-21T04:40:53;8.30;5.00
4308;DHT22;2167;53.448;9.984;2023-11-21T04:43:18;8.20;5.00
4308;DHT22;2167;53.448;9.984;2023-11-21T04:45:44;8.30;5.20
4308;DHT22;2167;53.448;9.984;2023-11-21T04:48:09;8.30;5.00
4308;DHT22;2167;53.448;9.984;2023-11-21T04:50:35;8.30;4.90
4308;DHT22;2167;53.448;9.984;2023-11-21T04:53:01;8.30;4.80
4308;DHT22;2167;53.448;9.984;2023-11-21T04:55:26;8.20;4.90
4308;DHT22;2167;53.448;9.984;2023-11-21T04:57:53;8.20;5.00
4308;DHT22;2167;53.448;9.984;2023-11-21T05:00:19;8.30;5.20
4308;DHT22;2167;53.448;9.984;2023-11-21T05:02:47;8.30;5.20
4308;DHT22;2167;53.448;9.984;2023-11-21T05:05:13;8.30;5.30
4308;DHT22;2167;53.448;9.984;2023-11-21T05:07:40;8.40;5.40
4308;DHT22;2167;53.448;9.984;2023-11-21T05:10:07;8.40;5.50
4308;DHT22;2167;53.448;9.984;2023-11-21T05:12:34;8.40;5.30
4308;DHT22;2167;53.448;9.984;2023-11-21T05:15:04;8.40;5.70
4308;DHT22;2167;53.448;9.984;2023-11-21T05:17:33;8.40;5.10
4308;DHT22;2167;53.448;9.984;2023-11-21T05:19:59;8.40;4.90
4308;DHT22;2167;53.448;9.984;2023-11-21T05:22:29;8.40;5.00
4308;DHT22;2167;53.448;9.984;2023-11-21T05:24:54;8.40;5.00
4308;DHT22;2167;53.448;9.984;2023-11-21T05:27:20;8.40;5.20
4308;DHT22;2167;53.448;9.984;2023-11-21T05:29:46;8.40;5.20
4308;DHT22;2167;53.448;9.984;2023-11-21T05:32:11;8.50;5.10
4308;DHT22;2167;53.448;9.984;2023-11-21T05:34:37;8.40;4.70
4308;DHT22;2167;53.448;9.984;2023-11-21T05:37:02;8.30;4.60
4308;DHT22;2167;53.448;9.984;2023-11-21T05:39:28;8.30;4.40
4308;DHT22;2167;53.448;9.984;2023-11-21T05:41:53;8.30;4.50
4308;DHT22;2167;53.448;9.984;2023-11-21T05:44:19;8.30;4.30
4308;DHT22;2167;53.448;9.984;2023-11-21T05:46:45;8.30;4.40
4308;DHT22;2167;53.448;9.984;2023-11-21T05:49:10;8.20;4.70
4308;DHT22;2167;53.448;9.984;2023-11-21T05:51:37;8.30;4.80
4308;DHT22;2167;53.448;9.984;2023-11-21T05:54:04;8.20;4.80
4308;DHT22;2167;53.448;9.984;2023-11-21T05:56:29;8.30;4.50
4308;DHT22;2167;53.448;9.984;2023-11-21T05:58:55;8.30;4.60
4308;DHT22;2167;53.448;9.984;2023-11-21T06:01:20;8.30;5.40
4308;DHT22;2167;53.448;9.984;2023-11-21T06:03:46;8.30;4.90
4308;DHT22;2167;53.448;9.984;2023-11-21T06:06:12;8.30;4.60
4308;DHT22;2167;53.448;9.984;2023-11-21T06:08:37;8.20;4.30
4308;DHT22;2167;53.448;9.984;2023-11-21T06:11:03;8.20;3.70
4308;DHT22;2167;53.448;9.984;2023-11-21T06:13:29;8.20;3.80
4308;DHT22;2167;53.448;9.984;2023-11-21T06:15:54;8.20;4.00
4308;DHT22;2167;53.448;9.984;2023-11-21T06:18:20;8.20;4.00
4308;DHT22;2167;53.448;9.984;2023-11-21T06:20:46;8.20;3.70
4308;DHT22;2167;53.448;9.984;2023-11-21T06:23:12;8.20;3.60
4308;DHT22;2167;53.448;9.984;2023-11-21T06:25:37;8.20;3.50
4308;DHT22;2167;53.448;9.984;2023-11-21T06:28:03;8.20;3.40
4308;DHT22;2167;53.448;9.984;2023-11-21T06:30:29;8.20;3.30
4308;DHT22;2167;53.448;9.984;2023-11-21T06:32:55;8.20;2.90
4308;DHT22;2167;53.448;9.984;2023-11-21T06:35:21;8.10;2.70
4308;DHT22;2167;53.448;9.984;2023-11-21T06:37:47;8.20;3.00
4308;DHT22;2167;53.448;9.984;2023-11-21T06:40:13;8.10;3.10
4308;DHT22;2167;53.448;9.984;2023-11-21T06:42:43;8.10;3.30
4308;DHT22;2167;53.448;9.984;2023-11-21T06:45:10;8.10;3.20
4308;DHT22;2167;53.448;9.984;2023-11-21T06:47:37;8.10;3.40
4308;DHT22;2167;53.448;9.984;2023-11-21T06:50:04;8.10;3.40
4308;DHT22;2167;53.448;9.984;2023-11-21T06:52:29;8.10;3.40
4308;DHT22;2167;53.448;9.984;2023-11-21T06:54:55;8.10;3.10
4308;DHT22;2167;53.448;9.984;2023-11-21T06:57:23;8.10;3.00
4308;DHT22;2167;53.448;9.984;2023-11-21T06:59:49;8.10;2.90
4308;DHT22;2167;53.448;9.984;2023-11-21T07:02:16;8.10;2.80
4308;DHT22;2167;53.448;9.984;2023-11-21T07:04:46;8.10;2.90
4308;DHT22;2167;53.448;9.984;2023-11-21T07:07:12;8.10;3.00
4308;DHT22;2167;53.448;9.984;2023-11-21T07:09:38;8.10;3.10
4308;DHT22;2167;53.448;9.984;2023-11-21T07:12:04;8.10;3.10
4308;DHT22;2167;53.448;9.984;2023-11-21T07:14:35;8.10;3.00
4308;DHT22;2167;53.448;9.984;2023-11-21T07:17:01;8.10;3.20
4308;DHT22;2167;53.448;9.984;2023-11-21T07:19:26;8.10;3.10
4308;DHT22;2167;53.448;9.984;2023-11-21T07:21:52;8.10;2.90
4308;DHT22;2167;53.448;9.984;2023-11-21T07:24:18;8.10;2.80
4308;DHT22;2167;53.448;9.984;2023-11-21T07:26:43;8.10;2.70
4308;DHT22;2167;53.448;9.984;2023-11-21T07:29:09;8.10;2.50
4308;DHT22;2167;53.448;9.984;2023-11-21T07:31:35;8.10;2.50
4308;DHT22;2167;53.448;9.984;2023-11-21T07:34:00;8.20;2.50
4308;DHT22;2167;53.448;9.984;2023-11-21T07:36:26;8.20;2.50
4308;DHT22;2167;53.448;9.984;2023-11-21T07:38:52;8.20;2.40
4308;DHT22;2167;53.448;9.984;2023-11-21T07:41:18;8.20;2.30
4308;DHT22;2167;53.448;9.984;2023-11-21T07:43:47;8.20;2.40
4308;DHT22;2167;53.448;9.984;2023-11-21T07:46:13;8.20;2.40
4308;DHT22;2167;53.448;9.984;2023-11-21T07:48:39;8.20;1.80
4308;DHT22;2167;53.448;9.984;2023-11-21T07:51:05;8.20;1.90
4308;DHT22;2167;53.448;9.984;2023-11-21T07:53:32;8.10;2.10
4308;DHT22;2167;53.448;9.984;2023-11-21T07:56:02;8.10;1.90
4308;DHT22;2167;53.448;9.984;2023-11-21T07:58:28;8.10;1.80
4308;DHT22;2167;53.448;9.984;2023-11-21T08:00:54;8.10;2.00
4308;DHT22;2167;53.448;9.984;2023-11-21T08:03:19;8.20;2.00
4308;DHT22;2167;53.448;9.984;2023-11-21T08:05:46;8.20;2.10
4308;DHT22;2167;53.448;9.984;2023-11-21T08:08:11;8.20;2.30
4308;DHT22;2167;53.448;9.984;2023-11-21T08:10:37;8.20;2.40
4308;DHT22;2167;53.448;9.984;2023-11-21T08:13:05;8.20;2.50
4308;DHT22;2167;53.448;9.984;2023-11-21T08:15:32;8.20;2.60
4308;DHT22;2167;53.448;9.984;2023-11-21T08:17:58;8.20;2.80
4308;DHT22;2167;53.448;9.984;2023-11-21T08:20:26;8.20;2.50
4308;DHT22;2167;53.448;9.984;2023-11-21T08:22:51;8.20;2.10
4308;DHT22;2167;53.448;9.984;2023-11-21T08:25:18;8.30;1.70
4308;DHT22;2167;53.448;9.984;2023-11-21T08:27:46;8.30;1.60
4308;DHT22;2167;53.448;9.984;2023-11-21T08:30:12;8.30;1.40
4308;DHT22;2167;53.448;9.984;2023-11-21T08:32:39;8.30;1.30
4308;DHT22;2167;53.448;9.984;2023-11-21T08:35:07;8.30;1.40
4308;DHT22;2167;53.448;9.984;2023-11-21T08:37:33;8.30;1.90
4308;DHT22;2167;53.448;9.984;2023-11-21T08:40:05;8.30;1.00
4308;DHT22;2167;53.448;9.984;2023-11-21T08:42:35;8.30;1.00
4308;DHT22;2167;53.448;9.984;2023-11-21T08:45:00;8.30;1.00
4308;DHT22;2167;53.448;9.984;2023-11-21T08:47:27;8.40;1.00
4308;DHT22;2167;53.448;9.984;2023-11-21T08:49:53;8.40;1.00
4308;DHT22;2167;53.448;9.984;2023-11-21T08:52:19;8.40;1.00
4308;DHT22;2167;53.448;9.984;2023-11-21T08:54:48;8.30;1.00
4308;DHT22;2167;53.448;9.984;2023-11-21T08:57:24;8.40;1.00
4308;DHT22;2167;53.448;9.984;2023-11-21T08:59:49;8.30;1.00
4308;DHT22;2167;53.448;9.984;2023-11-21T09:02:23;8.40;1.00
4308;DHT22;2167;53.448;9.984;2023-11-21T09:04:51;8.30;1.00
4308;DHT22;2167;53.448;9.984;2023-11-21T09:07:20;8.30;1.00
4308;DHT22;2167;53.448;9.984;2023-11-21T09:09:47;8.30;1.00
4308;DHT22;2167;53.448;9.984;2023-11-21T09:12:13;8.30;1.00
4308;DHT22;2167;53.448;9.984;2023-11-21T09:14:43;8.40;1.00
4308;DHT22;2167;53.448;9.984;2023-11-21T09:17:15;8.40;1.00
4308;DHT22;2167;53.448;9.984;2023-11-21T09:19:40;8.30;1.00
4308;DHT22;2167;53.448;9.984;2023-11-21T09:22:07;8.30;1.00
4308;DHT22;2167;53.448;9.984;2023-11-21T09:24:33;8.30;1.00
4308;DHT22;2167;53.448;9.984;2023-11-21T09:26:58;8.30;1.00
4308;DHT22;2167;53.448;9.984;2023-11-21T09:29:25;8.30;1.00
4308;DHT22;2167;53.448;9.984;2023-11-21T09:31:51;8.30;1.00
4308;DHT22;2167;53.448;9.984;2023-11-21T09:34:17;8.30;1.00
4308;DHT22;2167;53.448;9.984;2023-11-21T09:36:47;8.30;1.00
4308;DHT22;2167;53.448;9.984;2023-11-21T09:39:13;8.30;1.00
4308;DHT22;2167;53.448;9.984;2023-11-21T09:41:46;8.40;1.00
4308;DHT22;2167;53.448;9.984;2023-11-21T09:44:18;8.40;1.00
4308;DHT22;2167;53.448;9.984;2023-11-21T09:46:48;8.40;1.00
4308;DHT22;2167;53.448;9.984;2023-11-21T09:49:15;8.30;1.00
4308;DHT22;2167;53.448;9.984;2023-11-21T09:51:43;8.30;1.00
4308;DHT22;2167;53.448;9.984;2023-11-21T09:54:10;8.30;1.00
4308;DHT22;2167;53.448;9.984;2023-11-21T09:56:37;8.30;1.00
4308;DHT22;2167;53.448;9.984;2023-11-21T09:59:03;8.40;1.00
4308;DHT22;2167;53.448;9.984;2023-11-21T10:01:36;8.40;1.00
4308;DHT22;2167;53.448;9.984;2023-11-21T10:04:02;8.40;1.00
4308;DHT22;2167;53.448;9.984;2023-11-21T10:06:28;8.40;1.00
4308;DHT22;2167;53.448;9.984;2023-11-21T10:08:56;8.40;1.00
4308;DHT22;2167;53.448;9.984;2023-11-21T10:11:25;8.40;1.00
4308;DHT22;2167;53.448;9.984;2023-11-21T10:13:54;8.40;1.00
4308;DHT22;2167;53.448;9.984;2023-11-21T10:16:20;8.50;1.00
4308;DHT22;2167;53.448;9.984;2023-11-21T10:18:51;8.50;1.00
4308;DHT22;2167;53.448;9.984;2023-11-21T10:21:18;8.60;1.00
4308;DHT22;2167;53.448;9.984;2023-11-21T10:23:44;8.70;1.00
4308;DHT22;2167;53.448;9.984;2023-11-21T10:26:11;8.70;1.00
4308;DHT22;2167;53.448;9.984;2023-11-21T10:29:02;8.80;1.00
4308;DHT22;2167;53.448;9.984;2023-11-21T10:31:30;8.80;1.00
4308;DHT22;2167;53.448;9.984;2023-11-21T10:34:17;8.70;1.00
4308;DHT22;2167;53.448;9.984;2023-11-21T10:36:43;8.70;1.00
4308;DHT22;2167;53.448;9.984;2023-11-21T10:39:09;8.70;1.00
4308;DHT22;2167;53.448;9.984;2023-11-21T10:41:38;8.70;1.00
4308;DHT22;2167;53.448;9.984;2023-11-21T10:44:05;8.70;1.00
4308;DHT22;2167;53.448;9.984;2023-11-21T10:46:34;8.70;1.00
4308;DHT22;2167;53.448;9.984;2023-11-21T10:49:00;8.60;1.00
4308;DHT22;2167;53.448;9.984;2023-11-21T10:51:27;8.70;1.00
4308;DHT22;2167;53.448;9.984;2023-11-21T10:53:54;8.70;1.00
4308;DHT22;2167;53.448;9.984;2023-11-21T10:56:23;8.60;1.00
4308;DHT22;2167;53.448;9.984;2023-11-21T10:58:49;8.60;1.00
4308;DHT22;2167;53.448;9.984;2023-11-21T11:01:18;8.60;1.00
4308;DHT22;2167;53.448;9.984;2023-11-21T11:03:44;8.60;1.00
4308;DHT22;2167;53.448;9.984;2023-11-21T11:06:10;8.60;1.00
4308;DHT22;2167;53.448;9.984;2023-11-21T11:08:38;8.60;1.00
4308;DHT22;2167;53.448;9.984;2023-11-21T11:11:05;8.50;1.00
4308;DHT22;2167;53.448;9.984;2023-11-21T11:13:31;8.50;1.00
4308;DHT22;2167;53.448;9.984;2023-11-21T11:16:01;8.50;1.00
4308;DHT22;2167;53.448;9.984;2023-11-21T11:18:28;8.60;1.00
4308;DHT22;2167;53.448;9.984;2023-11-21T11:21:01;8.60;1.00
4308;DHT22;2167;53.448;9.984;2023-11-21T11:24:03;8.60;1.00
4308;DHT22;2167;53.448;9.984;2023-11-21T11:32:51;8.90;1.00
4308;DHT22;2167;53.448;9.984;2023-11-21T11:35:13;9.00;1.00
4308;DHT22;2167;53.448;9.984;2023-11-21T11:37:43;9.10;1.00
4308;DHT22;2167;53.448;9.984;2023-11-21T11:40:11;9.10;1.00
4308;DHT22;2167;53.448;9.984;2023-11-21T11:42:37;9.10;1.00
4308;DHT22;2167;53.448;9.984;2023-11-21T11:45:17;8.90;1.00
4308;DHT22;2167;53.448;9.984;2023-11-21T11:47:47;8.90;1.00
4308;DHT22;2167;53.448;9.984;2023-11-21T11:50:13;8.90;1.00
4308;DHT22;2167;53.448;9.984;2023-11-21T11:52:42;8.90;1.00
4308;DHT22;2167;53.448;9.984;2023-11-21T11:55:13;8.90;1.00
4308;DHT22;2167;53.448;9.984;2023-11-21T11:57:40;8.80;1.00
4308;DHT22;2167;53.448;9.984;2023-11-21T12:03:02;8.90;1.00
4308;DHT22;2167;53.448;9.984;2023-11-21T12:05:29;8.90;1.00
4308;DHT22;2167;53.448;9.984;2023-11-21T12:08:03;8.90;1.00
4308;DHT22;2167;53.448;9.984;2023-11-21T12:10:36;9.00;1.00
4308;DHT22;2167;53.448;9.984;2023-11-21T12:13:07;9.00;1.00
4308;DHT22;2167;53.448;9.984;2023-11-21T12:15:34;9.10;1.00
4308;DHT22;2167;53.448;9.984;2023-11-21T12:18:00;9.20;1.00
4308;DHT22;2167;53.448;9.984;2023-11-21T12:20:27;9.20;1.00
4308;DHT22;2167;53.448;9.984;2023-11-21T12:22:55;9.20;1.00
4308;DHT22;2167;53.448;9.984;2023-11-21T12:25:24;9.30;1.00
4308;DHT22;2167;53.448;9.984;2023-11-21T12:27:54;9.20;1.00
4308;DHT22;2167;53.448;9.984;2023-11-21T12:30:22;9.20;1.00
4308;DHT22;2167;53.448;9.984;2023-11-21T12:32:52;9.10;1.00
4308;DHT22;2167;53.448;9.984;2023-11-21T12:35:20;9.10;1.00
4308;DHT22;2167;53.448;9.984;2023-11-21T12:37:47;9.00;1.00
4308;DHT22;2167;53.448;9.984;2023-11-21T12:40:13;9.00;1.00
4308;DHT22;2167;53.448;9.984;2023-11-21T12:42:46;8.90;1.00
4308;DHT22;2167;53.448;9.984;2023-11-21T12:48:01;8.80;1.00
4308;DHT22;2167;53.448;9.984;2023-11-21T12:50:30;8.70;1.00
4308;DHT22;2167;53.448;9.984;2023-11-21T12:53:04;8.70;1.00
4308;DHT22;2167;53.448;9.984;2023-11-21T12:55:34;8.70;1.00
4308;DHT22;2167;53.448;9.984;2023-11-21T12:58:04;8.70;1.00
4308;DHT22;2167;53.448;9.984;2023-11-21T13:00:45;8.60;1.00
4308;DHT22;2167;53.448;9.984;2023-11-21T13:03:13;8.60;1.00
4308;DHT22;2167;53.448;9.984;2023-11-21T13:05:42;8.70;1.00
4308;DHT22;2167;53.448;9.984;2023-11-21T13:08:11;8.70;1.00
4308;DHT22;2167;53.448;9.984;2023-11-21T13:10:45;8.70;1.00
4308;DHT22;2167;53.448;9.984;2023-11-21T13:13:13;8.60;1.00
4308;DHT22;2167;53.448;9.984;2023-11-21T13:15:56;8.60;1.00
4308;DHT22;2167;53.448;9.984;2023-11-21T13:18:25;8.50;1.00
4308;DHT22;2167;53.448;9.984;2023-11-21T13:20:55;8.50;1.00
4308;DHT22;2167;53.448;9.984;2023-11-21T13:23:23;8.40;1.00
4308;DHT22;2167;53.448;9.984;2023-11-21T13:25:49;8.50;1.00
4308;DHT22;2167;53.448;9.984;2023-11-21T13:28:15;8.40;1.00
4308;DHT22;2167;53.448;9.984;2023-11-21T13:30:42;8.40;1.00
4308;DHT22;2167;53.448;9.984;2023-11-21T13:33:08;8.30;1.00
4308;DHT22;2167;53.448;9.984;2023-11-21T13:35:35;8.30;1.00
4308;DHT22;2167;53.448;9.984;2023-11-21T13:38:22;8.30;1.00
4308;DHT22;2167;53.448;9.984;2023-11-21T13:40:50;8.30;1.00
4308;DHT22;2167;53.448;9.984;2023-11-21T13:43:20;8.20;1.00
4308;DHT22;2167;53.448;9.984;2023-11-21T13:45:47;8.20;1.00
4308;DHT22;2167;53.448;9.984;2023-11-21T13:48:14;8.20;1.00
4308;DHT22;2167;53.448;9.984;2023-11-21T13:50:40;8.20;1.00
4308;DHT22;2167;53.448;9.984;2023-11-21T13:53:14;8.20;1.00
4308;DHT22;2167;53.448;9.984;2023-11-21T13:55:49;8.20;1.00
4308;DHT22;2167;53.448;9.984;2023-11-21T13:58:16;8.20;1.00
4308;DHT22;2167;53.448;9.984;2023-11-21T14:00:45;8.10;1.00
4308;DHT22;2167;53.448;9.984;2023-11-21T14:03:12;8.10;1.00
4308;DHT22;2167;53.448;9.984;2023-11-21T14:05:50;8.10;1.00
4308;DHT22;2167;53.448;9.984;2023-11-21T14:08:21;8.10;1.00
4308;DHT22;2167;53.448;9.984;2023-11-21T14:10:50;8.00;1.00
4308;DHT22;2167;53.448;9.984;2023-11-21T14:13:21;8.00;1.00
4308;DHT22;2167;53.448;9.984;2023-11-21T14:15:49;7.90;1.00
4308;DHT22;2167;53.448;9.984;2023-11-21T14:18:25;7.90;1.00
4308;DHT22;2167;53.448;9.984;2023-11-21T14:21:04;8.00;1.00
4308;DHT22;2167;53.448;9.984;2023-11-21T14:23:31;8.00;1.00
4308;DHT22;2167;53.448;9.984;2023-11-21T14:25:58;8.00;1.00
4308;DHT22;2167;53.448;9.984;2023-11-21T14:28:26;8.00;1.00
4308;DHT22;2167;53.448;9.984;2023-11-21T14:30:52;8.00;1.00
4308;DHT22;2167;53.448;9.984;2023-11-21T14:33:17;8.00;1.00
4308;DHT22;2167;53.448;9.984;2023-11-21T14:35:43;8.00;1.00
4308;DHT22;2167;53.448;9.984;2023-11-21T14:38:10;8.00;1.00
4308;DHT22;2167;53.448;9.984;2023-11-21T14:40:36;8.00;1.00
4308;DHT22;2167;53.448;9.984;2023-11-21T14:43:05;8.00;1.00
4308;DHT22;2167;53.448;9.984;2023-11-21T14:45:33;8.00;1.00
4308;DHT22;2167;53.448;9.984;2023-11-21T14:48:00;8.00;1.00
4308;DHT22;2167;53.448;9.984;2023-11-21T14:50:44;8.00;1.00
4308;DHT22;2167;53.448;9.984;2023-11-21T14:53:31;7.90;1.00
4308;DHT22;2167;53.448;9.984;2023-11-21T14:56:17;7.80;1.00
4308;DHT22;2167;53.448;9.984;2023-11-21T14:58:54;7.80;1.00
4308;DHT22;2167;53.448;9.984;2023-11-21T15:01:21;7.70;1.00
4308;DHT22;2167;53.448;9.984;2023-11-21T15:04:02;7.70;1.00
4308;DHT22;2167;53.448;9.984;2023-11-21T15:06:27;7.70;1.00
4308;DHT22;2167;53.448;9.984;2023-11-21T15:08:57;7.70;1.00
4308;DHT22;2167;53.448;9.984;2023-11-21T15:11:35;7.70;1.00
4308;DHT22;2167;53.448;9.984;2023-11-21T15:14:02;7.70;1.00
4308;DHT22;2167;53.448;9.984;2023-11-21T15:16:32;7.60;1.00
4308;DHT22;2167;53.448;9.984;2023-11-21T15:18:58;7.60;1.00
4308;DHT22;2167;53.448;9.984;2023-11-21T15:21:25;7.60;1.00
4308;DHT22;2167;53.448;9.984;2023-11-21T15:23:51;7.60;1.00
4308;DHT22;2167;53.448;9.984;2023-11-21T15:26:16;7.60;1.00
4308;DHT22;2167;53.448;9.984;2023-11-21T15:28:42;7.60;1.00
4308;DHT22;2167;53.448;9.984;2023-11-21T15:31:08;7.60;1.00
4308;DHT22;2167;53.448;9.984;2023-11-21T15:33:34;7.50;1.00
4308;DHT22;2167;53.448;9.984;2023-11-21T15:36:03;7.60;1.00
4308;DHT22;2167;53.448;9.984;2023-11-21T15:38:29;7.60;1.00
4308;DHT22;2167;53.448;9.984;2023-11-21T15:40:55;7.50;1.00
4308;DHT22;2167;53.448;9.984;2023-11-21T15:43:20;7.50;1.00
4308;DHT22;2167;53.448;9.984;2023-11-21T15:45:46;7.50;1.00
4308;DHT22;2167;53.448;9.984;2023-11-21T15:48:12;7.40;1.00
4308;DHT22;2167;53.448;9.984;2023-11-21T15:50:37;7.40;1.00
4308;DHT22;2167;53.448;9.984;2023-11-21T15:53:03;7.30;1.00
4308;DHT22;2167;53.448;9.984;2023-11-21T15:55:30;7.30;1.00
4308;DHT22;2167;53.448;9.984;2023-11-21T15:57:56;7.30;1.00
4308;DHT22;2167;53.448;9.984;2023-11-21T16:00:21;7.30;1.00
4308;DHT22;2167;53.448;9.984;2023-11-21T16:02:55;7.30;1.00
4308;DHT22;2167;53.448;9.984;2023-11-21T16:05:21;7.30;1.00
4308;DHT22;2167;53.448;9.984;2023-11-21T16:07:47;7.30;1.00
4308;DHT22;2167;53.448;9.984;2023-11-21T16:10:13;7.30;1.00
4308;DHT22;2167;53.448;9.984;2023-11-21T16:12:43;7.30;1.00
4308;DHT22;2167;53.448;9.984;2023-11-21T16:15:08;7.30;1.00
4308;DHT22;2167;53.448;9.984;2023-11-21T16:17:35;7.20;1.00
4308;DHT22;2167;53.448;9.984;2023-11-21T16:20:02;7.20;1.00
4308;DHT22;2167;53.448;9.984;2023-11-21T16:22:31;7.20;1.00
4308;DHT22;2167;53.448;9.984;2023-11-21T16:24:59;7.20;1.00
4308;DHT22;2167;53.448;9.984;2023-11-21T16:27:25;7.20;1.00
4308;DHT22;2167;53.448;9.984;2023-11-21T16:29:51;7.10;1.00
4308;DHT22;2167;53.448;9.984;2023-11-21T16:32:17;7.10;1.00
4308;DHT22;2167;53.448;9.984;2023-11-21T16:34:43;7.10;1.00
4308;DHT22;2167;53.448;9.984;2023-11-21T16:37:10;7.10;1.00
4308;DHT22;2167;53.448;9.984;2023-11-21T16:39:36;7.10;1.00
4308;DHT22;2167;53.448;9.984;2023-11-21T16:42:04;7.10;1.00
4308;DHT22;2167;53.448;9.984;2023-11-21T16:44:30;7.10;1.00
4308;DHT22;2167;53.448;9.984;2023-11-21T16:46:56;7.10;1.00